createdAt,value
2023-03-25T00:00:16.916Z,28.30
2023-03-25T00:02:50.429Z,28.40
2023-03-25T00:05:19.855Z,28.20
2023-03-25T00:07:50.783Z,28.40
2023-03-25T00:10:18.058Z,27.60
2023-03-25T00:12:45.473Z,28.00
2023-03-25T00:15:13.767Z,28.40
2023-03-25T00:17:40.969Z,28.60
2023-03-25T00:20:10.197Z,29.00
2023-03-25T00:22:46.810Z,28.90
2023-03-25T00:25:17.975Z,28.70
2023-03-25T00:27:47.027Z,27.90
2023-03-25T00:30:19.708Z,27.40
2023-03-25T00:32:50.323Z,27.30
2023-03-25T00:35:19.884Z,26.90
2023-03-25T00:37:57.743Z,27.30
2023-03-25T00:40:25.000Z,27.30
2023-03-25T00:42:51.971Z,27.20
2023-03-25T00:45:19.236Z,27.10
2023-03-25T00:47:46.443Z,27.00
2023-03-25T00:50:13.764Z,27.10
2023-03-25T00:52:45.362Z,28.10
2023-03-25T00:55:12.404Z,28.40
2023-03-25T00:57:39.758Z,29.20
2023-03-25T01:00:09.660Z,29.10
2023-03-25T01:02:39.545Z,29.20
2023-03-25T01:05:07.272Z,28.20
2023-03-25T01:07:34.822Z,28.30
2023-03-25T01:10:02.516Z,27.80
2023-03-25T01:12:29.601Z,27.80
2023-03-25T01:14:56.741Z,28.20
2023-03-25T01:17:24.092Z,28.60
2023-03-25T01:19:51.836Z,29.10
2023-03-25T01:22:18.844Z,29.80
2023-03-25T01:24:46.028Z,29.60
2023-03-25T01:27:13.155Z,29.80
2023-03-25T01:29:40.264Z,29.50
2023-03-25T01:32:07.295Z,29.00
2023-03-25T01:34:38.696Z,29.70
2023-03-25T01:37:06.526Z,29.60
2023-03-25T01:39:33.527Z,29.50
2023-03-25T01:42:00.735Z,29.70
2023-03-25T01:44:31.016Z,30.50
2023-03-25T01:47:03.785Z,30.70
2023-03-25T01:49:47.252Z,30.40
2023-03-25T01:52:21.709Z,30.30
2023-03-25T01:54:52.892Z,30.70
2023-03-25T01:57:22.615Z,31.60
2023-03-25T01:59:51.260Z,32.20
2023-03-25T02:02:19.100Z,32.80
2023-03-25T02:05:08.018Z,33.10
2023-03-25T02:07:36.875Z,32.80
2023-03-25T02:10:08.023Z,32.00
2023-03-25T02:12:35.140Z,32.00
2023-03-25T02:15:05.033Z,31.50
2023-03-25T02:18:03.056Z,32.00
2023-03-25T02:20:36.226Z,32.40
2023-03-25T02:23:28.636Z,32.30
2023-03-25T02:26:07.467Z,31.70
2023-03-25T02:28:42.915Z,30.90
2023-03-25T02:31:28.576Z,30.80
2023-03-25T02:34:22.481Z,30.20
2023-03-25T02:37:03.511Z,29.50
2023-03-25T02:40:00.033Z,29.70
2023-03-25T02:42:45.722Z,30.00
2023-03-25T02:45:21.603Z,31.10
2023-03-25T02:47:52.711Z,32.00
2023-03-25T02:50:29.187Z,32.10
2023-03-25T02:53:00.844Z,31.90
2023-03-25T02:55:33.679Z,31.40
2023-03-25T02:58:04.479Z,31.10
2023-03-25T03:00:31.839Z,30.90
2023-03-25T03:03:01.906Z,31.40
2023-03-25T03:05:31.773Z,30.90
2023-03-25T03:08:19.208Z,31.50
2023-03-25T03:11:22.353Z,31.40
2023-03-25T03:14:04.228Z,32.00
2023-03-25T03:16:50.381Z,32.30
2023-03-25T03:19:46.478Z,32.00
2023-03-25T03:22:36.373Z,32.70
2023-03-25T03:25:22.213Z,32.30
2023-03-25T03:27:58.951Z,32.40
2023-03-25T03:30:30.159Z,33.90
2023-03-25T03:33:17.218Z,33.50
2023-03-25T03:35:52.024Z,32.50
2023-03-25T03:38:23.009Z,32.60
2023-03-25T03:40:55.408Z,32.30
2023-03-25T03:43:42.806Z,32.30
2023-03-25T03:46:22.771Z,31.60
2023-03-25T03:48:55.371Z,31.20
2023-03-25T03:51:33.779Z,31.10
2023-03-25T03:54:08.682Z,31.80
2023-03-25T03:56:46.712Z,30.90
2023-03-25T03:59:24.261Z,30.40
2023-03-25T04:02:03.564Z,30.60
2023-03-25T04:04:31.770Z,30.80
2023-03-25T04:07:10.787Z,31.90
2023-03-25T04:09:56.864Z,31.80
2023-03-25T04:12:29.152Z,30.80
2023-03-25T04:14:57.226Z,30.60
2023-03-25T04:17:24.443Z,30.70
2023-03-25T04:19:53.877Z,31.10
2023-03-25T04:22:21.953Z,32.10
2023-03-25T04:24:49.802Z,32.70
2023-03-25T04:27:18.038Z,32.30
2023-03-25T04:29:45.132Z,31.70
2023-03-25T04:32:12.960Z,31.10
2023-03-25T04:34:40.526Z,30.70
2023-03-25T04:37:07.569Z,30.70
2023-03-25T04:39:34.575Z,30.80
2023-03-25T04:42:02.111Z,30.00
2023-03-25T04:44:33.833Z,29.00
2023-03-25T04:47:02.714Z,28.60
2023-03-25T04:49:29.925Z,28.80
2023-03-25T04:51:58.066Z,29.00
2023-03-25T04:54:25.457Z,29.70
2023-03-25T04:56:52.845Z,30.30
2023-03-25T04:59:21.456Z,31.40
2023-03-25T05:01:49.491Z,31.20
2023-03-25T05:04:17.955Z,30.60
2023-03-25T05:06:51.463Z,30.90
2023-03-25T05:09:24.631Z,31.00
2023-03-25T05:11:53.172Z,32.00
2023-03-25T05:14:21.860Z,31.50
2023-03-25T05:16:49.092Z,31.30
2023-03-25T05:19:19.140Z,31.80
2023-03-25T05:21:46.658Z,31.60
2023-03-25T05:24:14.299Z,31.00
2023-03-25T05:26:42.824Z,30.70
2023-03-25T05:29:15.064Z,30.40
2023-03-25T05:31:46.312Z,30.00
2023-03-25T05:34:14.842Z,29.60
2023-03-25T05:36:42.051Z,29.60
2023-03-25T05:39:09.317Z,29.20
2023-03-25T05:41:39.431Z,29.50
2023-03-25T05:44:08.262Z,30.00
2023-03-25T05:46:35.828Z,29.30
2023-03-25T05:49:03.165Z,29.20
2023-03-25T05:51:34.076Z,29.50
2023-03-25T05:54:02.026Z,30.30
2023-03-25T05:56:29.906Z,30.10
2023-03-25T05:58:57.754Z,30.40
2023-03-25T06:01:33.748Z,31.00
2023-03-25T06:04:02.552Z,31.70
2023-03-25T06:06:34.509Z,31.90
2023-03-25T06:09:02.960Z,32.00
2023-03-25T06:11:30.487Z,32.50
2023-03-25T06:13:57.515Z,32.00
2023-03-25T06:16:30.455Z,32.10
2023-03-25T06:19:01.696Z,33.00
2023-03-25T06:21:29.829Z,33.10
2023-03-25T06:23:58.944Z,32.80
2023-03-25T06:26:28.873Z,33.90
2023-03-25T06:28:56.046Z,31.70
2023-03-25T06:31:33.698Z,31.10
2023-03-25T06:34:01.592Z,31.10
2023-03-25T06:36:28.648Z,30.80
2023-03-25T06:38:56.385Z,31.80
2023-03-25T06:41:25.981Z,33.00
2023-03-25T06:43:53.370Z,32.90
2023-03-25T06:46:20.382Z,33.90
2023-03-25T06:48:47.388Z,33.70
2023-03-25T06:51:14.617Z,32.90
2023-03-25T06:53:41.735Z,32.70
2023-03-25T06:56:09.144Z,34.20
2023-03-25T06:58:41.097Z,34.30
2023-03-25T07:01:09.029Z,34.40
2023-03-25T07:03:37.408Z,34.50
2023-03-25T07:06:06.115Z,35.40
2023-03-25T07:08:33.415Z,35.00
2023-03-25T07:11:08.555Z,34.50
2023-03-25T07:13:36.155Z,33.10
2023-03-25T07:16:03.389Z,33.00
2023-03-25T07:18:31.058Z,32.50
2023-03-25T07:20:58.487Z,31.10
2023-03-25T07:23:26.008Z,31.00
2023-03-25T07:25:53.589Z,30.60
2023-03-25T07:28:20.795Z,30.20
2023-03-25T07:30:47.763Z,30.70
2023-03-25T07:33:15.052Z,30.90
2023-03-25T07:35:42.351Z,31.80
2023-03-25T07:38:10.122Z,32.50
2023-03-25T07:40:37.640Z,33.40
2023-03-25T07:43:04.733Z,33.10
2023-03-25T07:45:55.968Z,32.40
2023-03-25T07:48:19.619Z,31.20
2023-03-25T07:50:46.667Z,30.20
2023-03-25T07:53:13.657Z,31.20
2023-03-25T07:55:40.820Z,31.10
2023-03-25T07:58:09.213Z,30.80
2023-03-25T08:00:36.411Z,31.20
2023-03-25T08:03:04.129Z,29.40
2023-03-25T08:05:32.884Z,29.50
2023-03-25T08:08:01.474Z,28.60
2023-03-25T08:10:28.776Z,27.80
2023-03-25T08:12:56.158Z,27.80
2023-03-25T08:15:24.950Z,27.00
2023-03-25T08:17:54.941Z,26.70
2023-03-25T08:20:24.644Z,26.10
2023-03-25T08:22:51.866Z,26.10
2023-03-25T08:25:19.011Z,25.50
2023-03-25T08:27:46.074Z,25.50
2023-03-25T08:30:17.279Z,25.20
2023-03-25T08:32:46.442Z,25.00
2023-03-25T08:35:13.844Z,24.90
2023-03-25T08:37:40.880Z,25.00
2023-03-25T08:40:11.301Z,24.60
2023-03-25T08:42:38.763Z,24.40
2023-03-25T08:45:07.297Z,25.00
2023-03-25T08:47:34.439Z,24.70
2023-03-25T08:50:01.515Z,25.20
2023-03-25T08:52:28.495Z,26.60
2023-03-25T08:54:55.598Z,27.40
2023-03-25T08:57:22.636Z,27.60
2023-03-25T08:59:50.521Z,28.00
2023-03-25T09:02:17.765Z,28.30
2023-03-25T09:04:45.018Z,29.00
2023-03-25T09:07:12.821Z,29.30
2023-03-25T09:09:43.140Z,29.40
2023-03-25T09:12:10.273Z,29.50
2023-03-25T09:14:37.790Z,29.10
2023-03-25T09:17:06.578Z,29.90
2023-03-25T09:19:38.211Z,29.30
2023-03-25T09:22:06.536Z,28.50
2023-03-25T09:24:34.438Z,27.80
2023-03-25T09:27:02.560Z,27.20
2023-03-25T09:29:29.757Z,26.90
2023-03-25T09:32:01.175Z,27.50
2023-03-25T09:34:28.480Z,27.40
2023-03-25T09:36:56.274Z,27.90
2023-03-25T09:39:23.477Z,28.00
2023-03-25T09:42:14.880Z,27.80
2023-03-25T09:45:12.216Z,27.30
2023-03-25T09:47:53.140Z,27.80
2023-03-25T09:50:22.306Z,27.60
2023-03-25T09:53:04.488Z,27.20
2023-03-25T09:55:40.992Z,27.10
2023-03-25T09:58:23.171Z,27.00
2023-03-25T10:01:29.796Z,27.50
2023-03-25T10:04:24.298Z,27.30
2023-03-25T10:07:19.063Z,27.60
2023-03-25T10:10:07.046Z,27.50
2023-03-25T10:13:05.891Z,26.60
2023-03-25T10:16:07.358Z,26.80
2023-03-25T10:18:37.769Z,27.40
2023-03-25T10:21:21.589Z,27.60
2023-03-25T10:23:56.329Z,27.60
2023-03-25T10:26:46.254Z,27.00
2023-03-25T10:29:36.288Z,26.20
2023-03-25T10:32:41.899Z,25.80
2023-03-25T10:35:19.122Z,26.10
2023-03-25T10:37:51.783Z,26.00
2023-03-25T10:40:35.324Z,26.50
2023-03-25T10:43:14.105Z,26.80
2023-03-25T10:45:42.742Z,27.10
2023-03-25T10:48:25.742Z,27.70
2023-03-25T10:50:58.722Z,27.40
2023-03-25T10:53:27.970Z,27.00
2023-03-25T10:56:08.417Z,26.30
2023-03-25T10:58:41.577Z,26.50
2023-03-25T11:01:21.088Z,28.20
2023-03-25T11:03:52.741Z,27.90
2023-03-25T11:06:40.357Z,27.30
2023-03-25T11:09:23.652Z,27.20
2023-03-25T11:11:52.587Z,26.90
2023-03-25T11:14:24.994Z,26.00
2023-03-25T11:16:55.210Z,25.50
2023-03-25T11:19:41.912Z,25.00
2023-03-25T11:22:24.233Z,25.70
2023-03-25T11:25:03.603Z,26.40
2023-03-25T11:27:31.433Z,28.70
2023-03-25T11:30:04.638Z,30.50
2023-03-25T11:32:33.608Z,30.10
2023-03-25T11:35:16.363Z,28.90
2023-03-25T11:37:54.045Z,30.00
2023-03-25T11:40:23.517Z,30.50
2023-03-25T11:42:58.909Z,31.00
2023-03-25T11:45:37.999Z,30.20
2023-03-25T11:48:32.372Z,28.70
2023-03-25T11:51:02.978Z,27.80
2023-03-25T11:53:33.943Z,28.10
2023-03-25T11:56:11.619Z,27.20
2023-03-25T11:58:43.088Z,27.30
2023-03-25T12:01:24.675Z,28.10
2023-03-25T12:03:53.188Z,29.40
2023-03-25T12:06:23.608Z,30.70
2023-03-25T12:08:59.796Z,31.70
2023-03-25T12:11:44.631Z,31.40
2023-03-25T12:14:48.395Z,29.80
2023-03-25T12:17:30.800Z,28.60
2023-03-25T12:20:05.984Z,28.30
2023-03-25T12:22:39.406Z,27.00
2023-03-25T12:25:17.406Z,25.90
2023-03-25T12:28:04.402Z,25.00
2023-03-25T12:30:47.465Z,24.60
2023-03-25T12:33:57.316Z,25.50
2023-03-25T12:36:30.196Z,25.20
2023-03-25T12:39:18.009Z,25.70
2023-03-25T12:42:03.705Z,26.80
2023-03-25T12:44:45.841Z,28.10
2023-03-25T12:47:34.939Z,27.70
2023-03-25T12:50:50.704Z,28.70
2023-03-25T12:53:39.927Z,29.10
2023-03-25T12:56:21.797Z,28.60
2023-03-25T12:59:15.982Z,27.40
2023-03-25T13:02:01.545Z,27.00
2023-03-25T13:04:31.430Z,26.10
2023-03-25T13:07:10.465Z,25.40
2023-03-25T13:09:56.376Z,25.80
2023-03-25T13:12:41.049Z,26.10
2023-03-25T13:15:27.287Z,26.40
2023-03-25T13:18:13.524Z,25.60
2023-03-25T13:20:52.244Z,25.30
2023-03-25T13:23:24.736Z,25.30
2023-03-25T13:26:01.253Z,25.00
2023-03-25T13:28:43.955Z,25.00
2023-03-25T13:31:17.020Z,24.70
2023-03-25T13:34:16.875Z,25.30
2023-03-25T13:36:58.670Z,26.40
2023-03-25T13:39:30.487Z,26.80
2023-03-25T13:42:12.948Z,27.50
2023-03-25T13:44:43.236Z,28.20
2023-03-25T13:47:19.089Z,30.10
2023-03-25T13:50:03.144Z,30.00
2023-03-25T13:52:36.397Z,29.90
2023-03-25T13:55:21.348Z,29.20
2023-03-25T13:58:16.202Z,29.30
2023-03-25T14:00:57.181Z,28.50
2023-03-25T14:03:52.986Z,26.30
2023-03-25T14:06:38.214Z,25.50
2023-03-25T14:09:58.976Z,25.00
2023-03-25T14:12:41.312Z,24.20
2023-03-25T14:15:23.978Z,24.00
2023-03-25T14:17:52.999Z,24.50
2023-03-25T14:20:28.109Z,25.90
2023-03-25T14:22:58.783Z,26.30
2023-03-25T14:25:53.451Z,25.70
2023-03-25T14:28:37.717Z,25.80
2023-03-25T14:31:07.575Z,25.70
2023-03-25T14:34:06.895Z,25.30
2023-03-25T14:36:40.046Z,25.30
2023-03-25T14:39:30.475Z,25.10
2023-03-25T14:42:03.176Z,25.80
2023-03-25T14:44:33.329Z,25.00
2023-03-25T14:47:25.797Z,25.00
2023-03-25T14:50:03.073Z,25.60
2023-03-25T14:52:41.744Z,25.70
2023-03-25T14:55:30.316Z,24.90
2023-03-25T14:58:07.093Z,25.00
2023-03-25T15:00:42.711Z,25.10
2023-03-25T15:03:13.170Z,25.50
2023-03-25T15:05:42.651Z,26.50
2023-03-25T15:08:14.489Z,27.10
2023-03-25T15:11:07.860Z,26.30
2023-03-25T15:13:46.736Z,27.30
2023-03-25T15:16:46.104Z,27.20
2023-03-25T15:19:20.668Z,27.00
2023-03-25T15:22:07.695Z,27.40
2023-03-25T15:24:37.284Z,27.70
2023-03-25T15:27:22.925Z,27.30
2023-03-25T15:30:33.244Z,27.40
2023-03-25T15:33:17.095Z,27.50
2023-03-25T15:36:12.869Z,27.90
2023-03-25T15:39:00.485Z,27.50
2023-03-25T15:41:52.138Z,27.20
2023-03-25T15:44:36.878Z,26.80
2023-03-25T15:47:31.944Z,27.00
2023-03-25T15:50:11.075Z,27.60
2023-03-25T15:53:11.337Z,27.00
2023-03-25T15:55:47.443Z,26.60
2023-03-25T15:58:41.795Z,26.30
2023-03-25T16:01:31.624Z,26.70
2023-03-25T16:04:19.045Z,26.40
2023-03-25T16:06:50.876Z,26.20
2023-03-25T16:09:27.272Z,26.80
2023-03-25T16:12:00.458Z,27.10
2023-03-25T16:14:31.610Z,28.00
2023-03-25T16:17:00.245Z,27.80
2023-03-25T16:19:44.933Z,27.60
2023-03-25T16:22:28.377Z,27.00
2023-03-25T16:24:58.214Z,28.30
2023-03-25T16:27:37.738Z,28.20
2023-03-25T16:30:26.607Z,27.70
2023-03-25T16:32:53.761Z,27.00
2023-03-25T16:35:30.128Z,26.90
2023-03-25T16:37:58.295Z,27.10
2023-03-25T16:40:29.604Z,28.10
2023-03-25T16:43:06.063Z,28.40
2023-03-25T16:45:34.005Z,28.10
2023-03-25T16:48:09.852Z,28.00
2023-03-25T16:50:38.236Z,28.40
2023-03-25T16:53:06.088Z,28.40
2023-03-25T16:55:44.197Z,28.00
2023-03-25T16:58:18.581Z,27.30
2023-03-25T17:00:49.072Z,27.00
2023-03-25T17:03:21.705Z,27.10
2023-03-25T17:06:04.817Z,27.90
2023-03-25T17:08:31.902Z,28.80
2023-03-25T17:11:00.382Z,28.60
2023-03-25T17:13:38.367Z,28.60
2023-03-25T17:16:08.019Z,29.30
2023-03-25T17:18:37.363Z,29.00
2023-03-25T17:21:20.051Z,28.80
2023-03-25T17:23:50.444Z,29.00
2023-03-25T17:26:20.586Z,28.90
2023-03-25T17:28:50.813Z,29.20
2023-03-25T17:31:31.376Z,29.90
2023-03-25T17:34:04.261Z,30.90
2023-03-25T17:36:32.296Z,30.80
2023-03-25T17:39:03.240Z,30.70
2023-03-25T17:41:37.744Z,30.10
2023-03-25T17:44:05.806Z,29.40
2023-03-25T17:46:33.810Z,28.60
2023-03-25T17:49:16.921Z,28.30
2023-03-25T17:51:44.836Z,28.40
2023-03-25T17:54:12.274Z,28.20
2023-03-25T17:56:39.790Z,28.20
2023-03-25T17:59:27.248Z,28.00
2023-03-25T18:01:54.370Z,27.30
2023-03-25T18:04:22.362Z,27.10
2023-03-25T18:06:49.979Z,27.30
2023-03-25T18:09:25.132Z,27.10
2023-03-25T18:11:54.749Z,27.90
2023-03-25T18:14:23.046Z,28.20
2023-03-25T18:16:51.249Z,28.10
2023-03-25T18:19:21.880Z,28.50
2023-03-25T18:21:49.118Z,28.60
2023-03-25T18:24:16.493Z,29.20
2023-03-25T18:26:44.555Z,30.00
2023-03-25T18:29:28.309Z,29.80
2023-03-25T18:31:55.555Z,30.10
2023-03-25T18:34:25.484Z,30.30
2023-03-25T18:36:54.157Z,30.60
2023-03-25T18:39:26.392Z,30.80
2023-03-25T18:41:53.528Z,30.90
2023-03-25T18:44:20.727Z,30.70
2023-03-25T18:46:47.905Z,30.80
2023-03-25T18:49:18.056Z,31.00
2023-03-25T18:51:48.760Z,30.70
2023-03-25T18:54:16.815Z,30.00
2023-03-25T18:56:44.637Z,29.80
2023-03-25T18:59:16.997Z,29.70
2023-03-25T19:01:44.055Z,30.20
2023-03-25T19:04:11.102Z,31.00
2023-03-25T19:06:39.493Z,31.80
2023-03-25T19:09:09.434Z,33.50
2023-03-25T19:11:36.697Z,34.10
2023-03-25T19:14:03.894Z,33.80
2023-03-25T19:16:31.409Z,34.20
2023-03-25T19:18:59.409Z,33.10
2023-03-25T19:21:26.722Z,32.50
2023-03-25T19:23:53.760Z,32.30
2023-03-25T19:26:20.895Z,32.10
2023-03-25T19:28:47.974Z,31.70
2023-03-25T19:31:19.163Z,33.10
2023-03-25T19:33:46.370Z,34.30
2023-03-25T19:36:15.455Z,34.60
2023-03-25T19:38:42.969Z,35.20
2023-03-25T19:41:12.609Z,35.00
2023-03-25T19:43:39.927Z,34.80
2023-03-25T19:46:07.295Z,34.60
2023-03-25T19:48:35.714Z,34.70
2023-03-25T19:51:03.351Z,34.40
2023-03-25T19:53:30.506Z,34.10
2023-03-25T19:56:02.647Z,34.00
2023-03-25T19:58:29.793Z,34.40
2023-03-25T20:00:57.014Z,34.50
2023-03-25T20:03:24.317Z,34.50
2023-03-25T20:05:58.385Z,34.10
2023-03-25T20:08:26.266Z,34.30
2023-03-25T20:10:54.036Z,34.20
2023-03-25T20:13:21.463Z,35.10
2023-03-25T20:15:52.165Z,34.30
2023-03-25T20:18:20.083Z,33.20
2023-03-25T20:20:47.092Z,33.80
2023-03-25T20:23:14.160Z,35.30
2023-03-25T20:25:41.542Z,35.60
2023-03-25T20:28:08.597Z,35.10
2023-03-25T20:30:36.184Z,35.00
2023-03-25T20:33:03.850Z,34.70
2023-03-25T20:35:31.937Z,33.90
2023-03-25T20:37:59.030Z,34.40
2023-03-25T20:40:37.327Z,34.60
2023-03-25T20:43:13.741Z,34.70
2023-03-25T20:45:41.647Z,34.90
2023-03-25T20:48:08.999Z,33.50
2023-03-25T20:50:36.822Z,33.80
2023-03-25T20:53:04.690Z,33.70
2023-03-25T20:55:32.337Z,35.00
2023-03-25T20:57:59.456Z,33.80
2023-03-25T21:00:26.863Z,33.70
2023-03-25T21:02:54.550Z,33.70
2023-03-25T21:05:21.620Z,34.30
2023-03-25T21:07:48.739Z,34.00
2023-03-25T21:10:16.423Z,34.40
2023-03-25T21:12:44.889Z,33.60
2023-03-25T21:15:15.000Z,32.80
2023-03-25T21:17:42.813Z,33.10
2023-03-25T21:20:10.544Z,33.10
2023-03-25T21:22:46.143Z,32.70
2023-03-25T21:25:15.138Z,33.60
2023-03-25T21:27:45.518Z,34.20
2023-03-25T21:30:13.429Z,33.40
2023-03-25T21:32:41.102Z,33.00
2023-03-25T21:35:09.551Z,32.50
2023-03-25T21:37:40.592Z,32.10
2023-03-25T21:40:10.325Z,31.60
2023-03-25T21:42:41.526Z,31.10
2023-03-25T21:45:11.129Z,31.70
2023-03-25T21:47:38.446Z,31.30
2023-03-25T21:50:10.159Z,30.40
2023-03-25T21:52:47.208Z,29.70
2023-03-25T21:55:16.525Z,29.00
2023-03-25T21:57:47.917Z,28.90
2023-03-25T22:00:17.348Z,28.80
2023-03-25T22:02:48.407Z,28.80
2023-03-25T22:05:16.298Z,28.90
2023-03-25T22:07:43.489Z,28.40
2023-03-25T22:10:11.601Z,28.20
2023-03-25T22:12:38.867Z,28.30
2023-03-25T22:15:06.613Z,28.00
2023-03-25T22:17:33.814Z,28.20
2023-03-25T22:20:01.260Z,28.60
2023-03-25T22:22:30.156Z,28.30
2023-03-25T22:24:57.427Z,27.60
2023-03-25T22:27:24.617Z,27.70
2023-03-25T22:29:51.732Z,27.60
2023-03-25T22:32:19.177Z,28.30
2023-03-25T22:34:46.544Z,28.40
2023-03-25T22:37:16.463Z,28.60
2023-03-25T22:39:43.550Z,28.50
2023-03-25T22:42:10.967Z,28.50
2023-03-25T22:44:38.303Z,28.10
2023-03-25T22:47:05.397Z,28.00
2023-03-25T22:49:32.566Z,28.40
2023-03-25T22:51:59.692Z,28.70
2023-03-25T22:54:26.803Z,28.70
2023-03-25T22:56:54.201Z,29.40
2023-03-25T22:59:21.230Z,29.50
2023-03-25T23:01:48.277Z,29.70
2023-03-25T23:04:15.647Z,30.70
2023-03-25T23:06:46.900Z,32.00
2023-03-25T23:09:38.436Z,32.20
2023-03-25T23:12:05.584Z,31.40
2023-03-25T23:14:32.798Z,30.40
2023-03-25T23:17:00.040Z,30.20
2023-03-25T23:19:27.208Z,30.90
2023-03-25T23:21:54.468Z,31.90
2023-03-25T23:24:21.523Z,31.10
2023-03-25T23:26:48.621Z,30.60
2023-03-25T23:29:17.854Z,30.90
2023-03-25T23:31:45.385Z,30.20
2023-03-25T23:34:15.923Z,29.20
2023-03-25T23:36:44.118Z,29.70
2023-03-25T23:39:15.498Z,29.30
2023-03-25T23:41:45.087Z,29.30
2023-03-25T23:44:13.310Z,29.10
2023-03-25T23:46:42.009Z,29.10
2023-03-25T23:49:10.907Z,29.70
2023-03-25T23:51:40.851Z,28.90
2023-03-25T23:54:10.800Z,29.20
2023-03-25T23:56:38.655Z,29.10
2023-03-25T23:59:06.991Z,29.60
